Latest Weather Observations for Burnie Port

IDT60801

Issued at 2:01 pm EST Saturday 25 April 2015 (issued every 30 minutes, with the page automatically refreshed every 10 minutes)

About weather observations | Map of weather stations | Latest weather observations for TAS | Other Formats
Station Details ID: 091344 Name: BURNIE NTC AWS Lat: -41.05 Lon: 145.91 Height: 0.0 m
Data from the previous 72 hours. | See also: Recent months for locations in Tasmania
Date/Time
EST
Temp
°C
App
Temp
°C
Dew
Point
Rel
Hum
%
Delta-T
°C
Wind Press
QNH
hPa
Press
MSL
hPa
Rain
since 9 am
mm
Dir
 
Spd
km/h
Gust
km/h
Spd
kts
Gust
kts
25/02:00pm 16.0 - - - - NE 13 15 7 8 1008.1 1008.1 -
25/01:30pm 16.0 - - - - ENE 9 15 5 8 1008.1 1008.1 -
25/01:00pm 15.8 - - - - E 13 19 7 10 1008.0 1008.0 -
25/12:30pm 15.7 - - - - E 17 19 9 10 1008.1 1008.1 -
25/12:00pm 15.6 - - - - E 17 20 9 11 1008.2 1008.2 -
25/11:30am 15.4 - - - - ESE 20 22 11 12 1008.1 1008.1 -
25/11:00am 15.2 - - - - ESE 20 26 11 14 1008.0 1008.0 -
25/10:30am 15.4 - - - - SE 15 22 8 12 1008.0 1008.0 -
25/10:00am 15.1 - - - - SSE 11 17 6 9 1007.9 1007.9 -
25/09:30am 14.3 - - - - S 11 13 6 7 1007.8 1007.8 -
25/09:00am 13.7 - - - - SSE 15 19 8 10 1007.6 1007.6 -
25/08:30am 13.0 - - - - S 20 24 11 13 1007.4 1007.4 -
25/08:00am 13.0 - - - - S 20 26 11 14 1007.3 1007.3 -
25/07:30am 12.9 - - - - SSW 17 24 9 13 1006.7 1006.7 -
25/07:00am 12.5 - - - - SSW 15 19 8 10 1006.3 1006.3 -
25/06:30am 12.4 - - - - SSW 15 20 8 11 1005.8 1005.8 -
25/06:00am 12.6 - - - - SSW 17 20 9 11 1005.4 1005.4 -
25/05:30am 12.6 - - - - SSW 13 17 7 9 1005.0 1005.0 -
25/05:00am 12.8 - - - - SSW 17 24 9 13 1004.8 1004.8 -
25/04:30am 12.6 - - - - SSW 15 20 8 11 1004.5 1004.5 -
25/04:00am 12.7 - - - - SSW 15 20 8 11 1004.4 1004.4 -
25/03:30am 12.4 - - - - SSE 11 15 6 8 1004.3 1004.3 -
25/03:00am 12.1 - - - - S 7 9 4 5 1004.3 1004.3 -
25/02:30am 12.8 - - - - SSW 17 22 9 12 1004.1 1004.1 -
25/02:00am 12.8 - - - - SSW 13 19 7 10 1004.0 1004.0 -
25/01:30am 12.8 - - - - SSW 13 17 7 9 1003.8 1003.8 -
25/01:00am 13.2 - - - - SSW 11 17 6 9 1003.8 1003.8 -
25/12:30am 13.5 - - - - SSW 9 13 5 7 1003.9 1003.9 -
25/12:00am 13.4 - - - - SSW 4 7 2 4 1003.8 1003.8 -
 
Date/Time
EST
Temp
°C
App
Temp
°C
Dew
Point
Rel
Hum
%
Delta-T
°C
Wind Press
QNH
hPa
Press
MSL
hPa
Rain
since 9 am
mm
Dir
 
Spd
km/h
Gust
km/h
Spd
kts
Gust
kts
24/11:30pm 13.5 - - - - S 13 17 7 9 1003.5 1003.5 -
24/11:00pm 13.7 - - - - SSW 15 20 8 11 1003.3 1003.3 -
24/10:30pm 13.7 - - - - S 9 13 5 7 1003.3 1003.3 -
24/10:00pm 13.6 - - - - WSW 4 7 2 4 1003.1 1003.1 -
24/09:30pm 13.9 - - - - WNW 6 9 3 5 1003.2 1003.2 -
24/09:00pm 14.0 - - - - WNW 9 13 5 7 1003.2 1003.2 -
24/08:30pm 13.9 - - - - WNW 11 17 6 9 1003.0 1003.0 -
24/08:00pm 13.9 - - - - NW 11 13 6 7 1002.8 1002.8 -
24/07:30pm 14.1 - - - - NW 7 9 4 5 1002.5 1002.5 -
24/07:00pm 14.0 - - - - SSW 4 6 2 3 1002.1 1002.1 -
24/06:30pm 14.0 - - - - SSW 7 11 4 6 1001.8 1001.8 -
24/06:00pm 14.0 - - - - SW 7 9 4 5 1001.7 1001.7 -
24/05:30pm 13.9 - - - - SSW 7 11 4 6 1001.5 1001.5 -
24/05:00pm 13.9 - - - - W 7 9 4 5 1001.8 1001.8 -
24/04:30pm 14.1 - - - - NNW 7 9 4 5 1001.8 1001.8 -
24/04:00pm 14.2 - - - - NW 7 9 4 5 1002.0 1002.0 -
24/03:30pm 14.3 - - - - CALM 0 0 0 0 1002.0 1002.0 -
24/03:00pm 14.3 - - - - SE 4 7 2 4 1001.8 1001.8 -
24/02:30pm 14.3 - - - - E 6 9 3 5 1001.7 1001.7 -
24/02:00pm 14.3 - - - - E 6 7 3 4 1001.7 1001.7 -
24/01:30pm 14.3 - - - - ESE 7 7 4 4 1001.7 1001.7 -
24/01:00pm 14.4 - - - - ESE 9 11 5 6 1002.2 1002.2 -
24/12:30pm 14.2 - - - - E 9 11 5 6 1002.8 1002.8 -
24/12:00pm 13.9 - - - - E 11 15 6 8 1003.1 1003.1 -
24/11:30am 13.7 - - - - E 13 17 7 9 1003.5 1003.5 -
24/11:00am 13.5 - - - - ESE 11 13 6 7 1003.9 1003.9 -
24/10:30am 13.5 - - - - ESE 7 11 4 6 1004.1 1004.1 -
24/10:00am 13.3 - - - - SE 11 13 6 7 1004.0 1004.0 -
24/09:30am 13.3 - - - - ESE 7 9 4 5 1004.4 1004.4 -
24/09:00am 13.2 - - - - ESE 7 9 4 5 1004.5 1004.5 -
24/08:30am 12.9 - - - - SSE 9 11 5 6 1004.6 1004.6 -
24/08:00am 12.8 - - - - SSE 7 9 4 5 1005.0 1005.0 -
24/07:30am 12.8 - - - - SSW 4 6 2 3 1005.0 1005.0 -
24/07:00am 12.8 - - - - SSE 7 9 4 5 1005.1 1005.1 -
24/06:30am 12.7 - - - - N 2 4 1 2 1005.2 1005.2 -
24/06:00am 12.5 - - - - SSE 9 11 5 6 1005.4 1005.4 -
24/05:30am 12.9 - - - - SW 4 6 2 3 1005.7 1005.7 -
24/05:00am 13.2 - - - - WSW 2 4 1 2 1006.0 1006.0 -
24/04:30am 13.3 - - - - CALM 0 2 0 1 1006.1 1006.1 -
24/04:00am 13.8 - - - - S 9 11 5 6 1006.2 1006.2 -
24/03:30am 13.9 - - - - S 7 7 4 4 1006.6 1006.6 -
24/03:00am 14.2 - - - - S 6 7 3 4 1007.1 1007.1 -
24/02:30am 14.1 - - - - S 4 6 2 3 1007.6 1007.6 -
24/02:00am 14.6 - - - - S 2 9 1 5 1008.1 1008.1 -
24/01:30am 14.9 - - - - S 2 4 1 2 1008.6 1008.6 -
24/01:00am 14.9 - - - - SSW 2 4 1 2 1008.8 1008.8 -
24/12:30am 14.7 - - - - SSW 2 4 1 2 1009.3 1009.3 -
24/12:00am 14.9 - - - - S 6 9 3 5 1009.4 1009.4 -
 
Date/Time
EST
Temp
°C
App
Temp
°C
Dew
Point
Rel
Hum
%
Delta-T
°C
Wind Press
QNH
hPa
Press
MSL
hPa
Rain
since 9 am
mm
Dir
 
Spd
km/h
Gust
km/h
Spd
kts
Gust
kts
23/11:30pm 15.1 - - - - SSE 7 13 4 7 1009.8 1009.8 -
23/11:00pm 14.5 - - - - S 15 17 8 9 1010.5 1010.5 -
23/10:30pm 14.4 - - - - SE 4 7 2 4 1011.1 1011.1 -
23/10:00pm 14.6 - - - - SSE 4 7 2 4 1011.6 1011.6 -
23/09:30pm 14.7 - - - - S 4 9 2 5 1012.4 1012.4 -
23/09:00pm 14.8 - - - - ENE 4 7 2 4 1013.0 1013.0 -
23/08:30pm 14.7 - - - - N 2 4 1 2 1013.2 1013.2 -
23/08:00pm 14.8 - - - - W 2 6 1 3 1013.4 1013.4 -
23/07:30pm 14.9 - - - - SSW 6 11 3 6 1013.5 1013.5 -
23/07:00pm 15.0 - - - - SW 7 11 4 6 1013.8 1013.8 -
23/06:30pm 15.2 - - - - SW 4 7 2 4 1013.8 1013.8 -
23/06:00pm 15.6 - - - - W 6 9 3 5 1013.8 1013.8 -
23/05:30pm 15.8 - - - - NW 9 15 5 8 1014.0 1014.0 -
23/05:00pm 15.7 - - - - NW 11 15 6 8 1014.0 1014.0 -
23/04:30pm 15.8 - - - - NW 11 15 6 8 1014.5 1014.5 -
23/04:00pm 15.6 - - - - NW 13 17 7 9 1014.8 1014.8 -
23/03:30pm 15.7 - - - - NW 9 11 5 6 1014.9 1014.9 -
23/03:00pm 15.8 - - - - NNW 9 11 5 6 1015.5 1015.5 -
23/02:30pm 15.9 - - - - N 9 11 5 6 1016.0 1016.0 -
23/02:00pm 15.8 - - - - N 7 9 4 5 1016.5 1016.5 -
23/01:30pm 15.6 - - - - NE 7 9 4 5 1016.9 1016.9 -
23/01:00pm 15.5 - - - - ENE 7 11 4 6 1017.4 1017.4 -
23/12:30pm 15.3 - - - - E 11 15 6 8 1018.2 1018.2 -
23/12:00pm 15.2 - - - - E 15 19 8 10 1018.9 1018.9 -
23/11:30am 15.2 - - - - E 13 19 7 10 1019.7 1019.7 -
23/11:00am 15.0 - - - - E 17 20 9 11 1020.0 1020.0 -
23/10:30am 15.0 - - - - E 20 24 11 13 1020.2 1020.2 -
23/10:00am 15.3 - - - - ESE 11 17 6 9 1020.4 1020.4 -
23/09:30am 15.0 - - - - SE 15 24 8 13 1020.6 1020.6 -
23/09:00am 14.0 - - - - SSE 15 19 8 10 1020.9 1020.9 -
23/08:30am 13.2 - - - - S 17 19 9 10 1021.1 1021.1 -
23/08:00am 12.5 - - - - S 15 17 8 9 1021.2 1021.2 -
23/07:30am 12.2 - - - - S 9 13 5 7 1021.2 1021.2 -
23/07:00am 12.2 - - - - S 13 17 7 9 1021.2 1021.2 -
23/06:30am 12.2 - - - - SSE 13 15 7 8 1021.3 1021.3 -
23/06:00am 13.0 - - - - S 15 19 8 10 1021.2 1021.2 -
23/05:30am 13.0 - - - - S 13 15 7 8 1021.3 1021.3 -
23/05:00am 13.4 - - - - S 15 17 8 9 1021.3 1021.3 -
23/04:30am 13.4 - - - - S 15 19 8 10 1021.5 1021.5 -
23/04:00am 13.2 - - - - S 17 20 9 11 1021.3 1021.3 -
23/03:30am 13.3 - - - - S 7 11 4 6 1021.6 1021.6 -
23/03:00am 13.2 - - - - S 13 17 7 9 1021.9 1021.9 -
23/02:30am 12.9 - - - - S 9 13 5 7 1022.1 1022.1 -
23/02:00am 13.7 - - - - SSE 11 19 6 10 1022.4 1022.4 -
23/01:30am 13.5 - - - - S 9 15 5 8 1022.6 1022.6 -
23/01:00am 13.0 - - - - SSW 11 13 6 7 1022.9 1022.9 -
23/12:30am 13.0 - - - - SSW 9 9 5 5 1023.0 1023.0 -

Other Formats:

Comma delimited format used in spreadsheet applications
http://www.bom.gov.au/fwo/IDT60801/IDT60801.95963.axf

JavaScript Object Notation format (JSON) in row-major order
http://www.bom.gov.au/fwo/IDT60801/IDT60801.95963.json